Accueil
METAR-TAF:

METAR-TAF

Aéroports :

Aérodrome de Granges

Granges, Suisse

latitude: 47-10-53N, longitude: 007-24-59E, altitude: 430 m

Observation

Le bulletin a été fait il y a 29 minutes, à 16:50 UTC
Vent 5 kt de est/sud-est
Température 9°C
Humidité 76%
Pression 1020 hPa
Visibilité 10 km ou plus
Quelques nuages à une hauteur de 3000 ft
Nuages fragmentés à une hauteur de 4200 ft

METAR: LSZG 281650Z 11005KT 9999 FEW030 BKN042 09/05 Q1020

Heure: 18:19 (17:19 UTC)

Prévision

Le bulletin a été fait il y a 2 heures et 54 minutes, à 14:25 UTC
Prévision valable du 28 à 15 UTC au 28 à 24 UTC
Vent 6 kt de nord-est
Visibilité 10 km ou plus
Nuages épars à une hauteur de 3300 ft
Nuages fragmentés à une hauteur de 4000 ft

TAF: LSZG 281425Z 2815/2824 04006KT 9999 SCT033 BKN040

Observations et prévisions météorologiques de plus de 4000 aéroports (messages METAR et TAF).

Les stations disponibles sont représentées par des disques jaunes et rouges sur la carte.

Passer la souris dessus pour voir le nom de la station.

Cliquer dessus pour voir les observations et prévisions météorologiques.

Pour changer de carte: cliquez sur les boutons verts avec une croix noire pour zoomer, sur le bouton vert avec un tiret pour effectuer un zoom arrière, ou sur les flèches vertes pour les cartes adjacentes.


METAR-TAF: